UNWW 091000Z 35004MPS CAVOK M17/M21 Q1015 R19/810249 NOSIG RMK QFE734
QNH:(hPa/inHg/mmHg)1015 / 29.97 / 761
QFE:(hPa/inHg/mmHg)977 / 28.85 / 733
Temperature-17
Dew Point-21
Visibility> 10000
WeatherCAVOK
Cloud Cover
Transition Height800 m./3700 ft.
Transition LevelFL50
SQUAWK